Time;durP1;ratioP1;P1;durP2;ratioP2;P2;SDS_P1;SDS_P2;PMS_P1;PMS_P2;Temp;Humidity;BMP_temperature;BMP_pressure;BME280_temperature;BME280_humidity;BME280_pressure;Samples;Min_cycle;Max_cycle;Signal;HPM_P1;HPM_P2
2024/04/16 00:01:13;;;;;;;19.05;9.02;;;;;;;17.07;73.45;99329.94;5451355;26;20599;-82
2024/04/16 00:03:39;;;;;;;11.25;8.07;;;;;;;17.28;72.07;99327.91;5455291;26;20010;-82
2024/04/16 00:06:04;;;;;;;10.45;8.15;;;;;;;16.56;76.23;99306.78;5487739;26;20070;-82
2024/04/16 00:08:30;;;;;;;11.10;9.57;;;;;;;16.40;78.50;99329.44;5485887;26;20080;-82
2024/04/16 00:11:01;;;;;;;10.82;9.60;;;;;;;16.28;80.97;99348.59;5487855;26;19993;-82
2024/04/16 00:13:26;;;;;;;12.05;10.75;;;;;;;16.67;74.69;99312.91;5485432;26;20092;-82
2024/04/16 00:15:51;;;;;;;13.35;9.98;;;;;;;16.90;73.92;99324.13;5451461;26;19999;-81
2024/04/16 00:18:17;;;;;;;12.43;9.57;;;;;;;16.79;75.17;99321.44;5451302;26;19999;-81
2024/04/16 00:20:42;;;;;;;11.63;8.82;;;;;;;17.13;73.59;99322.63;5451068;26;20010;-81
2024/04/16 00:23:08;;;;;;;10.38;8.43;;;;;;;17.11;72.99;99317.53;5450248;26;19999;-81
2024/04/16 00:25:33;;;;;;;10.75;7.97;;;;;;;17.18;72.41;99320.72;5481869;26;20017;-81
2024/04/16 00:27:59;;;;;;;9.32;7.85;;;;;;;17.15;72.02;99315.88;5487326;26;19998;-82
2024/04/16 00:30:25;;;;;;;11.13;8.82;;;;;;;16.93;71.08;99285.88;5487525;26;20013;-81
2024/04/16 00:32:50;;;;;;;12.23;8.57;;;;;;;16.95;70.37;99286.38;5487212;26;20021;-81
2024/04/16 00:35:16;;;;;;;9.60;7.63;;;;;;;16.90;72.37;99324.94;5460665;26;20460;-81
2024/04/16 00:37:41;;;;;;;10.73;7.57;;;;;;;16.09;79.81;99315.31;5449260;26;20003;-81
2024/04/16 00:40:07;;;;;;;13.02;8.60;;;;;;;16.32;77.98;99344.28;5463395;26;20439;-80
2024/04/16 00:42:33;;;;;;;12.30;9.25;;;;;;;15.71;81.21;99328.25;5485250;26;20368;-83
2024/04/16 00:44:58;;;;;;;11.77;9.23;;;;;;;15.98;79.88;99336.06;5485303;26;20013;-80
2024/04/16 00:47:24;;;;;;;10.75;8.45;;;;;;;15.73;83.13;99340.38;5487074;26;20121;-80
2024/04/16 00:49:50;;;;;;;12.30;10.00;;;;;;;16.05;80.38;99321.22;5486939;26;20082;-81
2024/04/16 00:52:15;;;;;;;13.40;9.45;;;;;;;16.51;76.38;99338.28;5487035;26;19998;-80
2024/04/16 00:54:42;;;;;;;11.23;8.70;;;;;;;16.44;77.58;99342.06;5482266;26;20091;-81
2024/04/16 00:57:08;;;;;;;12.52;8.93;;;;;;;16.19;79.06;99344.88;5486311;26;20424;-80
2024/04/16 00:59:36;;;;;;;12.52;9.60;;;;;;;16.58;76.40;99344.19;5486954;26;20001;-80
2024/04/16 01:02:02;;;;;;;13.45;9.55;;;;;;;16.45;77.14;99349.09;5486893;26;19994;-80
2024/04/16 01:04:27;;;;;;;16.02;10.88;;;;;;;15.86;79.88;99310.25;5477253;26;19991;-80
2024/04/16 01:06:53;;;;;;;15.32;11.80;;;;;;;16.51;76.59;99325.66;5448757;26;20402;-80
2024/04/16 01:09:19;;;;;;;16.13;12.18;;;;;;;16.50;78.14;99342.88;5448606;26;20602;-80
2024/04/16 01:11:47;;;;;;;18.00;11.60;;;;;;;16.40;78.21;99343.72;5450062;26;20346;-81
2024/04/16 01:14:13;;;;;;;14.35;11.30;;;;;;;16.58;76.02;99344.19;5450518;26;20007;-81
2024/04/16 01:16:38;;;;;;;21.05;12.27;;;;;;;16.31;76.33;99339.19;5450125;26;20031;-81
2024/04/16 01:19:06;;;;;;;13.27;10.45;;;;;;;16.35;77.79;99351.81;5448569;26;20034;-81
2024/04/16 01:21:31;;;;;;;13.02;10.48;;;;;;;16.32;76.42;99346.97;5450115;26;20692;-81
2024/04/16 01:23:57;;;;;;;13.63;10.32;;;;;;;16.24;77.44;99336.75;5452721;26;20006;-82
2024/04/16 01:26:22;;;;;;;15.55;9.73;;;;;;;16.16;77.47;99353.47;5486413;26;20515;-81
2024/04/16 01:28:48;;;;;;;12.30;10.35;;;;;;;15.86;79.78;99345.19;5484637;26;20002;-80
2024/04/16 01:31:14;;;;;;;10.85;9.00;;;;;;;15.74;82.99;99333.13;5486233;26;19998;-81
2024/04/16 01:33:40;;;;;;;12.23;8.65;;;;;;;15.72;84.12;99337.94;5486092;26;20009;-81
2024/04/16 01:36:06;;;;;;;11.88;7.90;;;;;;;16.00;81.58;99334.69;5481052;26;19998;-81
2024/04/16 01:38:31;;;;;;;11.20;8.38;;;;;;;15.90;82.21;99323.16;5485962;26;20327;-81
2024/04/16 01:40:57;;;;;;;9.90;7.40;;;;;;;15.74;81.86;99325.06;5486689;26;19994;-80
2024/04/16 01:43:22;;;;;;;11.50;7.53;;;;;;;15.37;83.51;99305.44;5486260;26;19998;-80
2024/04/16 01:45:48;;;;;;;10.02;7.45;;;;;;;15.49;82.26;99305.16;5460575;26;20367;-80
2024/04/16 01:48:13;;;;;;;11.15;7.65;;;;;;;15.45;83.27;99322.91;5448049;26;20018;-80
2024/04/16 01:50:39;;;;;;;9.43;7.45;;;;;;;15.78;80.11;99316.19;5449792;26;20340;-81
2024/04/16 01:53:04;;;;;;;11.13;7.57;;;;;;;15.68;79.14;99316.16;5448077;26;20597;-81
2024/04/16 01:55:29;;;;;;;12.43;7.50;;;;;;;15.69;78.52;99301.63;5470538;26;20012;-81
2024/04/16 01:57:55;;;;;;;14.38;7.93;;;;;;;15.27;82.83;99316.97;5486044;26;20336;-80
2024/04/16 02:00:20;;;;;;;10.35;7.93;;;;;;;15.01;85.05;99318.03;5485987;26;20032;-81
2024/04/16 02:02:46;;;;;;;11.00;7.38;;;;;;;14.64;88.15;99314.44;5486004;26;20006;-81
2024/04/16 02:05:11;;;;;;;8.98;7.18;;;;;;;15.01;85.35;99315.34;5468378;26;19995;-80
2024/04/16 02:07:37;;;;;;;11.25;7.10;;;;;;;15.00;84.21;99306.50;5448107;26;19999;-81
2024/04/16 02:10:02;;;;;;;9.80;7.35;;;;;;;15.14;83.28;99311.31;5478070;26;20335;-81
2024/04/16 02:12:28;;;;;;;9.75;7.25;;;;;;;15.02;83.31;99282.88;5471931;26;20074;-80
2024/04/16 02:14:53;;;;;;;11.30;7.55;;;;;;;15.14;82.23;99296.03;5471914;26;20092;-80
2024/04/16 02:17:20;;;;;;;10.77;7.18;;;;;;;14.35;88.31;99292.59;5470821;26;20007;-80
2024/04/16 02:19:46;;;;;;;12.95;7.63;;;;;;;14.12;93.83;99309.94;5475451;26;20015;-81
2024/04/16 02:22:11;;;;;;;11.70;7.80;;;;;;;14.37;92.05;99301.19;5478929;26;20067;-80
2024/04/16 02:24:37;;;;;;;11.50;8.63;;;;;;;13.98;92.98;99293.50;5454443;26;20010;-81
2024/04/16 02:27:02;;;;;;;11.43;8.50;;;;;;;13.44;98.59;99264.22;5468981;26;20437;-80
2024/04/16 02:29:28;;;;;;;12.13;9.38;;;;;;;13.59;100.00;99284.97;5464481;26;20013;-80
2024/04/16 02:31:54;;;;;;;11.02;8.93;;;;;;;14.14;96.44;99290.88;5456990;26;20101;-80
2024/04/16 02:34:20;;;;;;;12.55;9.63;;;;;;;14.60;91.44;99301.84;5458331;26;20003;-80
2024/04/16 02:36:45;;;;;;;13.85;10.20;;;;;;;14.54;91.23;99303.66;5534153;25;20075;-83
2024/04/16 02:39:11;;;;;;;13.07;10.02;;;;;;;14.66;88.94;99306.16;5485278;26;20006;-81
2024/04/16 02:41:36;;;;;;;13.30;9.82;;;;;;;14.32;91.87;99311.09;5483427;26;20006;-80
2024/04/16 02:44:02;;;;;;;12.00;9.18;;;;;;;14.39;93.96;99314.34;5483354;26;20002;-81
2024/04/16 02:46:28;;;;;;;12.85;9.60;;;;;;;14.27;92.58;99304.63;5486152;26;20002;-81
2024/04/16 02:48:53;;;;;;;14.77;9.35;;;;;;;14.65;90.35;99320.66;5487126;26;19998;-81
2024/04/16 02:51:19;;;;;;;14.43;9.73;;;;;;;14.23;94.01;99302.75;5488734;26;20002;-81
2024/04/16 02:53:45;;;;;;;14.20;9.65;;;;;;;14.33;93.67;99307.34;5489137;26;19997;-80
2024/04/16 02:56:10;;;;;;;14.57;9.35;;;;;;;14.28;92.93;99300.06;5485841;26;19998;-81
2024/04/16 02:58:36;;;;;;;13.25;8.63;;;;;;;14.55;91.61;99310.66;5488708;26;20439;-80
2024/04/16 03:01:05;;;;;;;12.90;8.55;;;;;;;14.30;91.32;99299.81;5488708;26;20035;-81
2024/04/16 03:03:35;;;;;;;14.23;8.90;;;;;;;14.70;88.26;99309.13;5486901;26;20070;-80
2024/04/16 03:06:01;;;;;;;13.23;8.18;;;;;;;14.77;86.08;99307.78;5463358;26;20540;-80
2024/04/16 03:08:27;;;;;;;12.77;8.52;;;;;;;14.65;85.93;99312.59;5450138;26;19998;-80
2024/04/16 03:10:56;;;;;;;11.88;8.25;;;;;;;14.46;84.98;99307.69;5452107;26;20319;-80
2024/04/16 03:13:22;;;;;;;11.90;7.65;;;;;;;14.41;86.53;99298.78;5450194;26;20015;-80
2024/04/16 03:15:47;;;;;;;12.13;7.60;;;;;;;14.35;86.83;99311.38;5472290;26;20005;-81
2024/04/16 03:18:13;;;;;;;10.90;7.55;;;;;;;14.30;88.77;99314.03;5486702;26;19997;-81
2024/04/16 03:20:38;;;;;;;14.82;8.18;;;;;;;14.36;89.02;99307.59;5486545;26;20002;-81
2024/04/16 03:23:04;;;;;;;11.35;7.70;;;;;;;14.43;89.12;99318.13;5488168;26;20063;-81
2024/04/16 03:25:29;;;;;;;14.63;7.85;;;;;;;14.38;88.59;99316.19;5472828;26;20451;-81
2024/04/16 03:27:54;;;;;;;12.40;7.65;;;;;;;14.60;85.49;99312.56;5449834;26;20014;-81
2024/04/16 03:30:20;;;;;;;12.80;10.10;;;;;;;14.72;85.78;99325.75;5451787;26;20491;-80
2024/04/16 03:32:45;;;;;;;14.80;10.45;;;;;;;14.63;86.33;99318.22;5449867;26;20047;-80
2024/04/16 03:35:10;;;;;;;12.27;9.05;;;;;;;13.83;92.22;99309.47;5461333;26;19998;-81
2024/04/16 03:37:36;;;;;;;11.45;8.45;;;;;;;14.28;90.86;99324.19;5486357;26;20012;-82
2024/04/16 03:40:02;;;;;;;12.95;8.77;;;;;;;14.39;88.88;99333.94;5488163;26;20002;-80
2024/04/16 03:42:27;;;;;;;11.82;8.82;;;;;;;14.32;89.54;99346.75;5487794;26;20324;-81
2024/04/16 03:44:56;;;;;;;12.77;9.05;;;;;;;13.88;93.60;99335.53;5481279;26;20010;-80
2024/04/16 03:47:22;;;;;;;12.25;9.18;;;;;;;13.69;94.27;99324.41;5449930;26;20010;-82
2024/04/16 03:49:48;;;;;;;11.52;9.23;;;;;;;14.02;93.18;99345.53;5451720;26;20011;-81
2024/04/16 03:52:14;;;;;;;11.93;8.98;;;;;;;14.12;91.87;99346.66;5451451;26;20452;-81
2024/04/16 03:54:39;;;;;;;10.88;8.32;;;;;;;13.84;95.21;99343.28;5451959;26;19998;-81
2024/04/16 03:57:05;;;;;;;11.80;8.63;;;;;;;13.60;96.01;99335.59;5487064;26;20082;-81
2024/04/16 04:02:19;;;;;;;14.55;8.80;;;;;;;12.90;100.00;99344.59;5488204;26;20077;-81
2024/04/16 04:04:45;;;;;;;14.35;9.60;;;;;;;13.12;100.00;99348.03;5487620;26;20002;-80
2024/04/16 04:07:11;;;;;;;11.90;9.00;;;;;;;12.56;100.00;99339.38;5452252;26;20032;-80
2024/04/16 04:09:36;;;;;;;13.27;10.02;;;;;;;12.35;100.00;99360.53;5449879;26;20023;-81
2024/04/16 04:12:02;;;;;;;13.63;9.48;;;;;;;12.61;100.00;99342.94;5449928;26;20007;-81
2024/04/16 04:14:27;;;;;;;14.55;11.02;;;;;;;12.85;100.00;99359.53;5451410;26;20317;-80
2024/04/16 04:16:53;;;;;;;17.58;9.60;;;;;;;12.59;100.00;99336.22;5480729;26;20002;-80
2024/04/16 04:19:18;;;;;;;12.15;9.80;;;;;;;13.25;100.00;99362.84;5486417;26;20009;-81
2024/04/16 04:21:44;;;;;;;14.52;9.85;;;;;;;13.49;100.00;99384.00;5487475;26;20006;-81
2024/04/16 04:24:15;;;;;;;14.88;9.52;;;;;;;13.62;100.00;99375.53;5487190;26;20070;-80
2024/04/16 04:26:40;;;;;;;13.93;9.60;;;;;;;13.62;100.00;99359.47;5482868;26;19998;-81
2024/04/16 04:29:05;;;;;;;14.32;9.82;;;;;;;14.01;98.18;99333.19;5487323;26;20077;-81
2024/04/16 04:31:31;;;;;;;16.17;10.20;;;;;;;14.26;98.34;99379.97;5486980;26;20002;-81
2024/04/16 04:33:56;;;;;;;14.02;10.38;;;;;;;14.21;96.31;99369.25;5487090;26;20002;-81
2024/04/16 04:36:22;;;;;;;14.45;9.80;;;;;;;14.02;100.00;99383.06;5462723;26;20010;-80
2024/04/16 04:38:47;;;;;;;19.40;10.80;;;;;;;14.25;99.26;99389.09;5449380;26;20017;-80
2024/04/16 04:41:13;;;;;;;18.85;10.20;;;;;;;14.85;93.82;99406.59;5448942;26;20003;-80
2024/04/16 04:43:38;;;;;;;18.77;10.23;;;;;;;14.93;92.43;99412.50;5450489;26;19998;-81
2024/04/16 04:46:04;;;;;;;15.82;9.82;;;;;;;14.76;91.14;99410.84;5452807;26;20003;-81
2024/04/16 04:48:29;;;;;;;13.65;10.05;;;;;;;14.82;89.71;99361.47;5451014;26;20105;-81
2024/04/16 04:50:55;;;;;;;18.00;9.90;;;;;;;15.31;87.49;99397.03;5451178;26;19999;-80
2024/04/16 04:53:20;;;;;;;15.77;10.02;;;;;;;15.31;87.41;99397.03;5451162;26;19998;-80
2024/04/16 04:55:45;;;;;;;13.95;9.55;;;;;;;15.18;87.91;99398.34;5460202;26;20070;-82
2024/04/16 04:58:11;;;;;;;19.05;10.13;;;;;;;15.52;85.60;99398.66;5487845;26;20007;-81
2024/04/16 05:00:37;;;;;;;21.38;10.25;;;;;;;15.80;84.73;99415.38;5488295;26;20017;-81
2024/04/16 05:03:03;;;;;;;15.63;9.27;;;;;;;15.22;88.02;99400.25;5488778;26;20078;-81
2024/04/16 05:05:30;;;;;;;13.45;9.10;;;;;;;15.45;86.96;99392.75;5483343;26;20038;-82
2024/04/16 05:07:56;;;;;;;16.58;9.27;;;;;;;15.39;92.35;99383.88;5488851;26;20105;-82
2024/04/16 05:10:24;;;;;;;15.40;9.27;;;;;;;15.57;88.17;99374.50;5487852;26;20002;-80
2024/04/16 05:12:49;;;;;;;15.88;9.90;;;;;;;15.79;87.47;99360.00;5487976;26;20017;-80
2024/04/16 05:15:15;;;;;;;12.38;9.68;;;;;;;16.06;86.84;99378.53;5488867;26;20018;-84
2024/04/16 05:17:40;;;;;;;17.80;9.02;;;;;;;15.95;87.10;99368.84;5487778;26;20328;-81
2024/04/16 05:20:07;;;;;;;16.13;9.38;;;;;;;16.19;84.52;99363.69;5488352;26;20009;-80
2024/04/16 05:22:32;;;;;;;10.75;8.15;;;;;;;16.20;82.33;99366.13;5489161;26;20026;-81
2024/04/16 05:24:58;;;;;;;16.15;8.30;;;;;;;15.88;86.29;99363.75;5485856;26;20009;-81
2024/04/16 05:27:23;;;;;;;19.48;8.85;;;;;;;15.71;88.99;99360.50;5455083;26;20329;-80
2024/04/16 05:29:48;;;;;;;12.90;9.05;;;;;;;15.42;90.65;99331.50;5453221;26;20077;-80
2024/04/16 05:32:14;;;;;;;18.88;9.40;;;;;;;15.95;86.18;99342.75;5458344;26;20072;-81
2024/04/16 05:34:40;;;;;;;19.15;8.68;;;;;;;16.29;83.26;99354.81;5458002;26;20071;-81
2024/04/16 05:37:05;;;;;;;15.80;8.98;;;;;;;15.99;84.73;99330.38;5460728;26;20406;-81
2024/04/16 05:39:31;;;;;;;13.60;8.02;;;;;;;16.19;84.40;99337.59;5456703;26;20015;-81
2024/04/16 05:41:57;;;;;;;11.55;7.93;;;;;;;16.30;83.52;99359.09;5458850;26;20007;-81
2024/04/16 05:44:22;;;;;;;12.65;8.50;;;;;;;16.33;84.19;99372.00;5458088;26;20003;-81
2024/04/16 05:46:48;;;;;;;15.07;8.50;;;;;;;16.06;86.42;99344.38;5459435;26;20003;-81
2024/04/16 05:49:14;;;;;;;12.43;9.23;;;;;;;16.11;88.93;99373.13;5454588;26;20027;-81
2024/04/16 05:51:40;;;;;;;15.90;9.43;;;;;;;16.02;88.43;99343.28;5456194;26;20030;-82
2024/04/16 05:54:06;;;;;;;13.18;10.13;;;;;;;16.39;85.92;99352.06;5454603;26;19995;-82
2024/04/16 05:56:33;;;;;;;22.15;14.10;;;;;;;16.10;88.04;99362.63;5456182;26;20003;-81
2024/04/16 05:58:58;;;;;;;18.60;14.35;;;;;;;16.48;88.55;99382.72;5451996;26;19999;-82
2024/04/16 06:01:24;;;;;;;18.58;14.00;;;;;;;16.94;82.42;99368.25;5451413;26;19999;-80
2024/04/16 06:03:49;;;;;;;21.33;14.38;;;;;;;17.29;80.61;99407.66;5454104;26;20014;-81
2024/04/16 06:06:15;;;;;;;17.63;11.95;;;;;;;17.02;82.99;99367.66;5468694;26;20074;-81
2024/04/16 06:08:40;;;;;;;14.65;10.73;;;;;;;17.20;85.77;99377.81;5486652;26;20017;-81
2024/04/16 06:11:05;;;;;;;18.15;10.07;;;;;;;17.43;86.78;99399.78;5486039;26;20010;-80
2024/04/16 06:13:31;;;;;;;13.68;9.77;;;;;;;17.44;85.60;99388.69;5485825;26;20002;-80
2024/04/16 06:15:56;;;;;;;17.40;10.38;;;;;;;17.41;86.35;99393.84;5480168;26;20010;-81
2024/04/16 06:18:22;;;;;;;13.77;9.98;;;;;;;17.65;84.28;99389.34;5468372;26;20412;-81
2024/04/16 06:20:48;;;;;;;15.75;10.05;;;;;;;17.55;81.83;99399.41;5466478;26;19994;-81
2024/04/16 06:23:13;;;;;;;20.38;14.18;;;;;;;17.56;79.82;99382.16;5471630;26;20009;-80
2024/04/16 06:25:41;;;;;;;19.48;10.95;;;;;;;17.78;79.67;99389.78;5468534;26;20443;-81
2024/04/16 06:28:07;;;;;;;14.55;10.75;;;;;;;17.58;83.33;99396.94;5470749;26;19999;-82
2024/04/16 06:30:32;;;;;;;41.92;34.85;;;;;;;17.77;78.71;99385.47;5467545;26;20005;-82
2024/04/16 06:32:58;;;;;;;18.13;9.52;;;;;;;18.10;77.41;99383.03;5470708;26;20333;-81
2024/04/16 06:35:24;;;;;;;17.75;9.50;;;;;;;18.51;72.37;99378.03;5461788;26;20002;-82
2024/04/16 06:37:49;;;;;;;13.85;7.68;;;;;;;19.00;69.63;99384.16;5474600;26;20009;-82
2024/04/16 06:40:16;;;;;;;11.98;9.02;;;;;;;19.01;70.04;99380.38;5470074;26;20003;-81
2024/04/16 06:42:42;;;;;;;15.00;7.97;;;;;;;19.36;68.53;99402.59;5467473;26;20072;-86
2024/04/16 06:45:08;;;;;;;12.50;7.90;;;;;;;19.36;68.44;99380.94;5472399;26;20010;-81
2024/04/16 06:47:33;;;;;;;13.48;8.93;;;;;;;19.21;69.74;99393.59;5478400;26;20002;-80
2024/04/16 06:50:00;;;;;;;14.10;9.43;;;;;;;18.81;74.28;99371.44;5483727;26;20002;-81
2024/04/16 06:52:25;;;;;;;18.05;9.38;;;;;;;19.35;72.53;99376.63;5481362;26;20030;-82
2024/04/16 06:54:51;;;;;;;17.10;9.10;;;;;;;19.36;71.50;99387.16;5479640;26;20009;-80
2024/04/16 06:57:17;;;;;;;19.20;9.95;;;;;;;19.24;72.76;99382.19;5470172;26;20009;-82
2024/04/16 06:59:42;;;;;;;14.50;8.63;;;;;;;19.48;72.18;99381.31;5489351;26;19994;-82
2024/04/16 07:02:08;;;;;;;15.07;10.15;;;;;;;19.35;73.25;99368.50;5487323;26;20009;-81
2024/04/16 07:04:33;;;;;;;30.88;17.85;;;;;;;19.63;70.50;99383.75;5487079;26;19998;-87
2024/04/16 07:06:58;;;;;;;23.60;12.75;;;;;;;19.92;70.91;99384.66;5483463;26;20008;-82
2024/04/16 07:09:24;;;;;;;17.83;12.50;;;;;;;19.93;71.86;99381.66;5487370;26;20009;-85
2024/04/16 07:11:49;;;;;;;18.45;11.90;;;;;;;19.98;70.96;99357.22;5487558;26;20416;-80
2024/04/16 07:14:15;;;;;;;17.67;10.75;;;;;;;20.01;71.51;99370.16;5488080;26;19994;-82
2024/04/16 07:16:40;;;;;;;15.57;10.43;;;;;;;20.40;70.06;99381.63;5473382;26;20343;-80
2024/04/16 07:19:06;;;;;;;19.05;10.80;;;;;;;20.04;69.46;99363.34;5451850;26;20005;-82
2024/04/16 07:21:31;;;;;;;18.77;9.77;;;;;;;19.78;72.76;99350.28;5450329;26;20040;-81
2024/04/16 07:23:57;;;;;;;15.02;8.73;;;;;;;20.00;70.50;99362.31;5451944;26;19995;-82
2024/04/16 07:26:22;;;;;;;18.20;10.38;;;;;;;20.05;70.11;99332.47;5454493;26;20039;-83
2024/04/16 07:28:47;;;;;;;18.15;10.02;;;;;;;20.72;68.96;99364.47;5451808;26;20332;-81
2024/04/16 07:31:13;;;;;;;19.55;10.30;;;;;;;20.75;68.12;99363.84;5451895;26;19999;-81
2024/04/16 07:33:38;;;;;;;17.33;9.73;;;;;;;21.08;66.58;99358.25;5451658;26;20007;-81
2024/04/16 07:36:08;;;;;;;16.60;9.82;;;;;;;20.86;65.81;99361.72;5454275;26;19999;-80
2024/04/16 07:38:34;;;;;;;19.60;11.13;;;;;;;21.37;63.45;99354.34;5488006;26;20002;-81
2024/04/16 07:41:00;;;;;;;17.58;10.50;;;;;;;21.17;61.10;99364.56;5486230;26;20013;-80
2024/04/16 07:43:25;;;;;;;15.77;9.82;;;;;;;21.05;63.16;99353.47;5487647;26;20002;-80
2024/04/16 07:45:51;;;;;;;12.50;8.13;;;;;;;21.12;62.09;99356.53;5488059;26;19994;-81
2024/04/16 07:48:16;;;;;;;10.85;8.02;;;;;;;21.60;60.29;99380.41;5485779;26;19994;-81
2024/04/16 07:50:42;;;;;;;14.13;8.32;;;;;;;21.53;60.07;99355.59;5485439;26;19998;-81
2024/04/16 07:53:08;;;;;;;12.02;7.85;;;;;;;21.81;61.11;99363.59;5486750;26;19994;-81
2024/04/16 07:55:34;;;;;;;10.82;7.03;;;;;;;21.86;59.16;99355.31;5487355;26;19998;-81
2024/04/16 07:57:59;;;;;;;10.10;6.60;;;;;;;22.53;54.54;99378.00;5487104;26;20059;-80
2024/04/16 08:00:28;;;;;;;8.57;6.55;;;;;;;22.90;53.39;99364.97;5487243;26;20005;-80
2024/04/16 08:02:54;;;;;;;10.40;7.22;;;;;;;22.86;49.62;99384.63;5487121;26;20021;-81
2024/04/16 08:05:20;;;;;;;10.45;6.47;;;;;;;23.11;49.96;99365.16;5487245;26;19994;-80
2024/04/16 08:07:45;;;;;;;11.88;6.13;;;;;;;23.29;48.05;99371.41;5487060;26;20081;-81
2024/04/16 08:10:11;;;;;;;11.20;6.10;;;;;;;23.83;47.12;99372.66;5487251;26;19994;-80
2024/04/16 08:12:36;;;;;;;9.65;6.00;;;;;;;23.89;47.84;99364.31;5487024;26;20047;-81
2024/04/16 08:15:04;;;;;;;8.77;5.85;;;;;;;24.04;45.93;99352.88;5485382;26;20431;-81
2024/04/16 08:17:29;;;;;;;10.23;6.07;;;;;;;24.29;47.41;99348.44;5467961;26;20013;-80
2024/04/16 08:19:55;;;;;;;10.23;6.45;;;;;;;24.04;45.63;99364.56;5450868;26;19995;-80
2024/04/16 08:22:20;;;;;;;8.00;5.82;;;;;;;24.01;47.40;99359.78;5448753;26;19994;-81
2024/04/16 08:24:46;;;;;;;8.70;5.85;;;;;;;24.27;46.55;99328.91;5448701;26;20444;-80
2024/04/16 08:27:11;;;;;;;12.93;6.20;;;;;;;24.74;46.90;99352.53;5463719;26;20043;-81
2024/04/16 08:29:37;;;;;;;10.85;5.93;;;;;;;24.53;49.38;99333.44;5486920;26;19998;-80
2024/04/16 08:32:02;;;;;;;10.00;5.70;;;;;;;24.46;47.20;99333.94;5485167;26;19995;-80
2024/04/16 08:34:27;;;;;;;10.98;6.40;;;;;;;24.71;47.50;99345.84;5486898;26;19994;-79
2024/04/16 08:36:53;;;;;;;11.00;6.32;;;;;;;24.80;48.11;99329.41;5485907;26;20357;-82
2024/04/16 08:39:19;;;;;;;11.50;6.45;;;;;;;24.47;49.01;99339.03;5486547;26;20443;-81
2024/04/16 08:41:44;;;;;;;8.98;6.65;;;;;;;24.98;46.94;99338.25;5486671;26;20362;-81
2024/04/16 08:44:12;;;;;;;8.35;6.20;;;;;;;24.82;46.46;99314.31;5483438;26;20073;-80
2024/04/16 08:46:37;;;;;;;;;;;;;;;25.69;46.97;99342.00;5486885;26;20504;-80
2024/04/16 08:49:04;;;;;;;9.35;6.35;;;;;;;25.56;45.73;99328.31;5486378;26;19935;-82
2024/04/16 08:51:31;;;;;;;10.57;6.63;;;;;;;25.36;47.17;99332.69;5516002;26;19997;-81
2024/04/16 08:53:59;;;;;;;11.27;7.13;;;;;;;25.20;47.17;99324.28;5486711;26;20454;-80
2024/04/16 08:56:25;;;;;;;13.43;7.43;;;;;;;25.34;48.05;99315.03;5484183;26;20419;-80
2024/04/16 08:58:51;;;;;;;9.48;6.88;;;;;;;25.73;46.67;99315.59;5449648;26;19998;-80
2024/04/16 09:01:17;;;;;;;7.47;6.07;;;;;;;26.33;45.49;99341.38;5449873;26;20077;-80
2024/04/16 09:03:49;;;;;;;8.75;7.07;;;;;;;25.65;44.50;99320.81;5449711;26;20350;-80
2024/04/16 09:06:16;;;;;;;13.55;6.65;;;;;;;26.28;42.77;99322.50;5450180;26;20456;-81
2024/04/16 09:08:43;;;;;;;9.82;6.80;;;;;;;26.31;41.96;99308.13;5482517;26;20053;-83
2024/04/16 09:11:09;;;;;;;11.00;6.27;;;;;;;26.63;43.29;99302.91;5486480;26;19998;-81
2024/04/16 09:13:43;;;;;;;10.45;6.38;;;;;;;26.88;42.01;99313.78;5484518;26;20349;-82
2024/04/16 09:16:09;;;;;;;8.25;6.00;;;;;;;26.58;42.55;99298.47;5486515;26;19998;-82
2024/04/16 09:18:35;;;;;;;13.13;6.40;;;;;;;27.16;42.52;99294.63;5453409;26;19999;-81
2024/04/16 09:21:00;;;;;;;11.00;5.90;;;;;;;27.39;42.04;99305.84;5450104;26;20075;-82
2024/04/16 09:23:26;;;;;;;10.73;7.28;;;;;;;27.31;40.79;99288.41;5449900;26;20010;-82
2024/04/16 09:25:51;;;;;;;7.88;5.20;;;;;;;27.55;40.02;99292.19;5448016;26;20010;-81
2024/04/16 09:28:17;;;;;;;11.10;5.78;;;;;;;27.11;39.92;99268.28;5477312;26;19998;-82
2024/04/16 09:30:53;;;;;;;10.07;5.63;;;;;;;27.78;40.81;99289.63;5475337;26;20006;-80
2024/04/16 09:33:19;;;;;;;9.85;5.10;;;;;;;28.33;37.80;99287.84;5464894;26;20001;-82
2024/04/16 09:35:45;;;;;;;9.32;5.63;;;;;;;28.35;38.55;99252.63;5465822;26;20014;-81
2024/04/16 09:38:10;;;;;;;9.57;5.25;;;;;;;28.21;35.82;99252.31;5469434;26;20013;-81
2024/04/16 09:40:36;;;;;;;9.35;5.05;;;;;;;28.48;37.24;99271.69;5468484;26;20079;-81
2024/04/16 09:43:03;;;;;;;9.95;5.18;;;;;;;28.40;36.25;99255.09;5464868;26;20100;-81
2024/04/16 09:45:29;;;;;;;;;;;;;;;28.60;35.94;99263.38;5465915;26;20458;-82
2024/04/16 09:47:59;;;;;;;9.52;5.28;;;;;;;28.54;35.94;99231.91;5472545;26;19935;-82
2024/04/16 09:50:26;;;;;;;10.55;4.80;;;;;;;28.50;33.59;99237.28;5447684;26;20051;-83
2024/04/16 09:52:54;;;;;;;8.57;5.05;;;;;;;28.80;31.65;99223.81;5449386;26;19999;-82
2024/04/16 09:55:21;;;;;;;8.60;4.63;;;;;;;29.35;31.19;99214.66;5449158;26;20044;-81
2024/04/16 09:57:53;;;;;;;7.57;4.35;;;;;;;29.68;32.27;99221.47;5451636;26;20420;-82
2024/04/16 10:00:19;;;;;;;6.53;4.20;;;;;;;29.65;31.15;99237.53;5452209;26;19998;-82
2024/04/16 10:02:46;;;;;;;8.77;4.40;;;;;;;29.67;29.76;99226.19;5452788;26;19998;-81
2024/04/16 10:05:13;;;;;;;7.35;4.10;;;;;;;29.50;28.61;99221.97;5452860;26;20010;-82
2024/04/16 10:07:40;;;;;;;8.70;5.50;;;;;;;29.65;27.83;99207.31;5467189;26;20002;-82
2024/04/16 10:10:08;;;;;;;9.95;6.00;;;;;;;30.07;29.09;99215.81;5488660;26;20017;-81
2024/04/16 10:12:34;;;;;;;11.15;4.75;;;;;;;30.01;28.80;99212.56;5489065;26;19998;-84
2024/04/16 10:15:01;;;;;;;8.43;4.85;;;;;;;29.97;28.34;99196.03;5488875;26;20002;-83
2024/04/16 10:17:28;;;;;;;10.63;5.05;;;;;;;29.89;29.69;99205.34;5483914;26;20002;-82
2024/04/16 10:19:53;;;;;;;13.60;4.07;;;;;;;30.04;28.00;99215.38;5489070;26;20013;-81
2024/04/16 10:22:19;;;;;;;7.03;4.00;;;;;;;30.25;26.71;99200.34;5488501;26;20378;-83
2024/04/16 10:24:52;;;;;;;10.20;4.88;;;;;;;30.53;26.42;99191.69;5488874;26;20451;-82
2024/04/16 10:27:24;;;;;;;12.02;4.28;;;;;;;30.86;25.70;99176.34;5471690;26;19994;-82
2024/04/16 10:30:04;;;;;;;9.35;4.18;;;;;;;30.72;24.63;99185.22;5473024;26;20342;-82
2024/04/16 10:32:30;;;;;;;9.35;4.03;;;;;;;30.83;25.40;99172.38;5475342;26;20046;-81
2024/04/16 10:34:59;;;;;;;8.93;4.70;;;;;;;30.49;24.17;99193.63;5468768;26;20026;-81
2024/04/16 10:37:25;;;;;;;8.95;4.32;;;;;;;30.27;25.45;99176.03;5470277;26;20454;-80
2024/04/16 10:39:56;;;;;;;10.95;3.70;;;;;;;30.93;22.82;99181.94;5450777;26;20067;-81
2024/04/16 10:42:26;;;;;;;12.10;4.32;;;;;;;31.71;23.53;99170.06;5450360;26;20343;-81
2024/04/16 10:44:52;;;;;;;12.35;4.13;;;;;;;32.08;23.26;99160.03;5449198;26;20003;-79
2024/04/16 10:47:18;;;;;;;10.10;4.25;;;;;;;32.30;21.35;99178.28;5454593;26;20068;-80
2024/04/16 10:49:44;;;;;;;10.35;4.82;;;;;;;31.95;22.27;99157.59;5488104;26;20352;-81
2024/04/16 10:52:12;;;;;;;16.13;4.15;;;;;;;32.13;21.97;99148.66;5488142;26;20043;-82
2024/04/16 10:54:38;;;;;;;15.10;4.28;;;;;;;32.29;20.93;99140.84;5487992;26;20331;-81
2024/04/16 10:57:04;;;;;;;12.63;3.95;;;;;;;32.33;20.08;99144.41;5486243;26;20415;-81
2024/04/16 10:59:29;;;;;;;14.50;3.88;;;;;;;32.50;19.33;99142.09;5451587;26;20003;-81
2024/04/16 11:01:55;;;;;;;13.20;4.10;;;;;;;32.77;19.27;99135.09;5451660;26;20002;-81
2024/04/16 11:04:22;;;;;;;11.40;4.15;;;;;;;32.61;18.85;99153.97;5451466;26;20002;-81
2024/04/16 11:06:47;;;;;;;11.50;4.05;;;;;;;32.47;18.46;99146.44;5451026;26;20018;-81
2024/04/16 11:09:14;;;;;;;19.08;4.68;;;;;;;32.26;20.08;99147.13;5484535;26;20380;-81
2024/04/16 11:11:40;;;;;;;17.13;4.10;;;;;;;32.36;22.57;99126.28;5487941;26;20013;-81
2024/04/16 11:14:08;;;;;;;11.40;3.85;;;;;;;32.11;20.78;99139.97;5487514;26;20002;-83
2024/04/16 11:16:34;;;;;;;15.55;4.30;;;;;;;31.98;19.50;99142.25;5488148;26;20095;-80
2024/04/16 11:19:00;;;;;;;13.85;4.75;;;;;;;31.77;19.25;99137.41;5467739;26;20010;-80
2024/04/16 11:21:29;;;;;;;16.42;4.82;;;;;;;31.63;20.18;99129.84;5472045;26;20006;-81